Braxton, Mississippi
Current Conditions -  °F | °C
As of 5:54 AM on Friday 19 Dec 2014 (Local Time) from KJAN Reporting Station
Overcast Overcast  
Wind Chill: 46°   Ceiling: 2500
Heat Index: 48°   Visibility: 10mi
Dew Point: 37°   Wind: 5mph
Humidity: 66%   Direction: 80°E
Pressure: 30.16"   Gusts: NA
Location:  32.03°N, 89.97°W
Report Text: KJAN 191154Z 08004KT 10SM OVC025 09/03 A3016 RMK AO2 SLP212 70003 T00890028 10089 20083 53002
Loading
Personal Weather Stations






























Interactive Weather Map New forecast layout! Learn more

10-Day Weather Forecast

Advertisements
Track Severe Weather on mobile